Hales Eddy, New York
Current Conditions -  °F | °C
As of 3:15 PM on Friday 31 Oct 2014 (Local Time) from KMSV Reporting Station
Scattered Clouds Scattered Clouds  
Wind Chill:   Ceiling: Unl
Heat Index:   Visibility: 10mi
Dew Point:   Wind: 6mph
Humidity: 57%   Direction: 160°SSE
Pressure: 29.92"   Gusts: NA
Location:  41.9099°N, 75.1815°W
Report Text: KMSV 311915Z AUTO 16005KT 10SM SCT038 09/01 A2992 RMK AO1
Loading
Personal Weather Stations






























Interactive Weather Map
Tropical Storm Tracking
New forecast layout! Learn more

10-Day Weather Forecast

Advertisements
Track Severe Weather on mobile